createdAt,value
2023-05-11T00:00:37.091Z,8.43
2023-05-11T00:03:03.850Z,5.67
2023-05-11T00:05:30.461Z,4.63
2023-05-11T00:07:56.972Z,3.63
2023-05-11T00:10:23.547Z,3.70
2023-05-11T00:12:49.988Z,3.80
2023-05-11T00:15:16.485Z,4.83
2023-05-11T00:17:42.911Z,4.83
2023-05-11T00:20:09.785Z,3.77
2023-05-11T00:22:36.343Z,3.77
2023-05-11T00:25:03.093Z,2.93
2023-05-11T00:27:29.610Z,2.60
2023-05-11T00:29:56.676Z,3.70
2023-05-11T00:32:23.153Z,2.50
2023-05-11T00:34:49.697Z,2.87
2023-05-11T00:37:16.227Z,2.90
2023-05-11T00:39:42.721Z,3.07
2023-05-11T00:42:10.752Z,2.60
2023-05-11T00:44:37.281Z,2.03
2023-05-11T00:47:04.663Z,2.00
2023-05-11T00:49:31.314Z,2.20
2023-05-11T00:51:57.860Z,2.10
2023-05-11T00:54:24.748Z,1.67
2023-05-11T00:56:51.774Z,1.83
2023-05-11T00:59:18.735Z,1.67
2023-05-11T01:01:45.573Z,1.60
2023-05-11T01:04:12.876Z,1.80
2023-05-11T01:07:02.267Z,1.67
2023-05-11T01:09:44.928Z,2.80
2023-05-11T01:12:26.142Z,3.70
2023-05-11T01:15:27.511Z,4.10
2023-05-11T01:18:06.178Z,4.30
2023-05-11T01:20:32.945Z,4.57
2023-05-11T01:23:08.223Z,4.20
2023-05-11T01:26:19.363Z,4.60
2023-05-11T01:29:25.393Z,4.23
2023-05-11T01:31:55.460Z,4.10
2023-05-11T01:34:25.552Z,4.70
2023-05-11T01:36:59.281Z,3.87
2023-05-11T01:39:32.630Z,4.03
2023-05-11T01:42:07.576Z,3.90
2023-05-11T01:44:36.370Z,3.43
2023-05-11T01:47:04.345Z,3.97
2023-05-11T01:49:35.661Z,4.00
2023-05-11T01:52:03.597Z,3.67
2023-05-11T01:54:31.374Z,3.13
2023-05-11T01:57:00.367Z,2.90
2023-05-11T01:59:28.133Z,2.97
2023-05-11T02:01:55.037Z,2.30
2023-05-11T02:04:23.461Z,2.27
2023-05-11T02:06:52.340Z,2.27
2023-05-11T02:09:20.961Z,2.13
2023-05-11T02:11:49.146Z,2.30
2023-05-11T02:14:20.314Z,2.00
2023-05-11T02:16:50.055Z,2.00
2023-05-11T02:19:18.236Z,2.00
2023-05-11T02:21:46.540Z,1.90
2023-05-11T02:24:14.375Z,2.50
2023-05-11T02:26:41.323Z,2.30
2023-05-11T02:29:07.810Z,1.87
2023-05-11T02:31:42.770Z,1.97
2023-05-11T02:34:23.566Z,2.00
2023-05-11T02:36:53.785Z,1.70
2023-05-11T02:39:22.310Z,1.83
2023-05-11T02:41:56.266Z,1.90
2023-05-11T02:44:27.098Z,1.80
2023-05-11T02:46:55.820Z,2.20
2023-05-11T02:49:25.391Z,1.97
2023-05-11T02:51:54.885Z,1.93
2023-05-11T02:54:23.728Z,1.90
2023-05-11T02:56:53.123Z,1.90
2023-05-11T02:59:20.885Z,1.70
2023-05-11T03:01:48.135Z,1.90
2023-05-11T03:04:14.975Z,1.73
2023-05-11T03:06:41.748Z,1.80
2023-05-11T03:09:10.306Z,1.87
2023-05-11T03:11:42.698Z,1.83
2023-05-11T03:14:09.376Z,2.03
2023-05-11T03:16:37.799Z,2.40
2023-05-11T03:19:07.648Z,2.20
2023-05-11T03:21:36.697Z,2.50
2023-05-11T03:24:06.264Z,2.60
2023-05-11T03:26:34.272Z,2.73
2023-05-11T03:29:02.472Z,3.53
2023-05-11T03:31:29.405Z,4.23
2023-05-11T03:33:58.556Z,4.33
2023-05-11T03:36:27.101Z,4.20
2023-05-11T03:38:58.748Z,4.30
2023-05-11T03:41:34.060Z,5.30
2023-05-11T03:44:05.097Z,5.23
2023-05-11T03:46:35.773Z,5.53
2023-05-11T03:49:04.497Z,5.50
2023-05-11T03:51:32.813Z,5.47
2023-05-11T03:53:59.939Z,5.67
2023-05-11T03:56:26.812Z,5.87
2023-05-11T03:58:53.847Z,6.03
2023-05-11T04:01:22.731Z,6.63
2023-05-11T04:03:53.278Z,7.93
2023-05-11T04:06:20.917Z,7.93
2023-05-11T04:08:54.526Z,8.60
2023-05-11T04:11:22.109Z,7.97
2023-05-11T04:13:48.512Z,8.37
2023-05-11T04:16:14.965Z,7.93
2023-05-11T04:18:41.563Z,8.80
2023-05-11T04:21:08.025Z,8.67
2023-05-11T04:23:34.452Z,8.57
2023-05-11T04:26:01.008Z,8.20
2023-05-11T04:28:30.233Z,8.87
2023-05-11T04:30:57.810Z,8.73
2023-05-11T04:33:24.528Z,7.83
2023-05-11T04:35:55.624Z,8.30
2023-05-11T04:38:24.313Z,8.33
2023-05-11T04:40:50.882Z,8.77
2023-05-11T04:43:20.486Z,8.63
2023-05-11T04:45:50.997Z,8.37
2023-05-11T04:48:22.645Z,7.87
2023-05-11T04:50:49.091Z,7.70
2023-05-11T04:53:17.866Z,7.80
2023-05-11T04:55:46.057Z,8.23
2023-05-11T04:58:12.548Z,8.17
2023-05-11T05:00:39.082Z,7.80
2023-05-11T05:03:05.568Z,7.50
2023-05-11T05:05:32.531Z,7.97
2023-05-11T05:07:58.965Z,7.93
2023-05-11T05:10:25.493Z,8.30
2023-05-11T05:12:51.893Z,7.57
2023-05-11T05:15:18.390Z,8.13
2023-05-11T05:17:45.163Z,7.70
2023-05-11T05:20:12.622Z,6.67
2023-05-11T05:22:39.124Z,7.60
2023-05-11T05:25:06.236Z,7.20
2023-05-11T05:27:34.764Z,6.97
2023-05-11T05:30:04.475Z,6.80
2023-05-11T05:32:31.121Z,7.03
2023-05-11T05:34:57.582Z,6.70
2023-05-11T05:37:24.175Z,6.90
2023-05-11T05:39:50.641Z,6.90
2023-05-11T05:42:17.118Z,6.33
2023-05-11T05:44:44.386Z,5.93
2023-05-11T05:47:11.266Z,6.33
2023-05-11T05:49:37.928Z,5.57
2023-05-11T05:52:06.305Z,5.83
2023-05-11T05:54:32.830Z,5.20
2023-05-11T05:56:59.252Z,5.13
2023-05-11T05:59:26.753Z,5.40
2023-05-11T06:01:56.327Z,5.10
2023-05-11T06:04:24.321Z,4.90
2023-05-11T06:06:50.907Z,4.73
2023-05-11T06:09:17.797Z,4.40
2023-05-11T06:11:44.189Z,4.88
2023-05-11T06:14:10.968Z,4.43
2023-05-11T06:16:37.780Z,5.27
2023-05-11T06:19:04.407Z,5.40
2023-05-11T06:21:31.384Z,4.60
2023-05-11T06:23:58.392Z,4.20
2023-05-11T06:26:28.530Z,4.03
2023-05-11T06:28:55.538Z,4.10
2023-05-11T06:31:24.278Z,3.93
2023-05-11T06:33:52.083Z,4.17
2023-05-11T06:36:22.864Z,4.70
2023-05-11T06:38:49.388Z,3.93
2023-05-11T06:41:15.805Z,3.90
2023-05-11T06:43:42.346Z,4.10
2023-05-11T06:46:19.814Z,4.15
2023-05-11T06:48:46.364Z,3.97
2023-05-11T06:51:12.869Z,4.40
2023-05-11T06:53:39.319Z,4.28
2023-05-11T06:56:06.497Z,3.97
2023-05-11T06:58:32.962Z,4.80
2023-05-11T07:00:59.439Z,4.40
2023-05-11T07:03:25.975Z,4.20
2023-05-11T07:05:52.380Z,4.18
2023-05-11T07:08:18.834Z,4.00
2023-05-11T07:10:45.299Z,4.30
2023-05-11T07:13:11.848Z,4.10
2023-05-11T07:15:38.242Z,3.85
2023-05-11T07:18:04.852Z,3.80
2023-05-11T07:20:32.127Z,3.78
2023-05-11T07:22:59.271Z,3.75
2023-05-11T07:25:25.952Z,3.83
2023-05-11T07:27:52.634Z,3.55
2023-05-11T07:30:19.212Z,3.27
2023-05-11T07:32:46.594Z,3.27
2023-05-11T07:35:13.200Z,3.63
2023-05-11T07:37:39.657Z,3.67
2023-05-11T07:40:06.926Z,3.58
2023-05-11T07:42:33.428Z,3.50
2023-05-11T07:44:59.889Z,3.13
2023-05-11T07:47:26.965Z,3.78
2023-05-11T07:49:53.607Z,3.83
2023-05-11T07:52:20.034Z,3.88
2023-05-11T07:54:46.454Z,3.65
2023-05-11T07:57:13.947Z,3.50
2023-05-11T07:59:41.017Z,2.85
2023-05-11T08:02:11.458Z,2.53
2023-05-11T08:04:39.532Z,3.00
2023-05-11T08:07:05.952Z,3.30
2023-05-11T08:09:32.542Z,3.33
2023-05-11T08:12:01.605Z,3.22
2023-05-11T08:14:28.227Z,3.28
2023-05-11T08:16:54.739Z,2.83
2023-05-11T08:19:21.408Z,2.53
2023-05-11T08:21:47.927Z,2.60
2023-05-11T08:24:14.434Z,2.30
2023-05-11T08:26:40.892Z,2.30
2023-05-11T08:29:07.695Z,2.53
2023-05-11T08:31:34.232Z,2.50
2023-05-11T08:34:00.891Z,2.40
2023-05-11T08:36:27.377Z,2.20
2023-05-11T08:38:57.276Z,2.60
2023-05-11T08:41:25.956Z,2.63
2023-05-11T08:43:52.667Z,2.63
2023-05-11T08:46:23.757Z,2.30
2023-05-11T08:48:50.659Z,2.15
2023-05-11T08:51:17.145Z,2.13
2023-05-11T08:53:43.716Z,2.05
2023-05-11T08:56:11.775Z,2.15
2023-05-11T08:58:39.816Z,2.22
2023-05-11T09:01:07.372Z,2.40
2023-05-11T09:03:37.003Z,2.10
2023-05-11T09:06:07.126Z,1.92
2023-05-11T09:08:38.171Z,1.98
2023-05-11T09:11:06.081Z,2.28
2023-05-11T09:13:33.081Z,1.88
2023-05-11T09:15:59.678Z,1.77
2023-05-11T09:18:26.860Z,1.92
2023-05-11T09:20:53.598Z,1.90
2023-05-11T09:23:26.037Z,2.00
2023-05-11T09:25:52.804Z,1.73
2023-05-11T09:28:25.696Z,1.75
2023-05-11T09:30:53.467Z,1.85
2023-05-11T09:33:25.724Z,2.05
2023-05-11T09:35:53.160Z,1.77
2023-05-11T09:38:20.667Z,1.52
2023-05-11T09:40:52.145Z,1.60
2023-05-11T09:43:27.285Z,1.33
2023-05-11T09:45:56.188Z,1.42
2023-05-11T09:48:29.051Z,1.20
2023-05-11T09:51:01.404Z,1.60
2023-05-11T09:53:35.743Z,1.63
2023-05-11T09:56:02.264Z,1.52
2023-05-11T09:58:45.744Z,1.50
2023-05-11T10:01:12.260Z,1.40
2023-05-11T10:03:49.134Z,1.38
2023-05-11T10:06:17.532Z,1.23
2023-05-11T10:08:45.981Z,1.45
2023-05-11T10:11:12.484Z,1.30
2023-05-11T10:13:39.766Z,1.25
2023-05-11T10:16:08.685Z,1.20
2023-05-11T10:18:36.809Z,1.15
2023-05-11T10:21:05.630Z,1.52
2023-05-11T10:23:33.718Z,1.35
2023-05-11T10:26:00.966Z,1.77
2023-05-11T10:30:54.852Z,1.23
2023-05-11T10:33:21.628Z,1.40
2023-05-11T10:35:48.868Z,1.40
2023-05-11T10:38:16.308Z,1.30
2023-05-11T10:40:45.674Z,1.00
2023-05-11T10:43:34.276Z,1.02
2023-05-11T10:46:06.524Z,1.10
2023-05-11T10:48:50.650Z,0.90
2023-05-11T10:51:50.832Z,1.40
2023-05-11T10:54:33.372Z,1.23
2023-05-11T10:57:33.872Z,1.10
2023-05-11T11:00:31.805Z,0.90
2023-05-11T11:03:00.063Z,0.93
2023-05-11T11:05:34.958Z,1.08
2023-05-11T11:08:05.854Z,1.00
2023-05-11T11:10:34.784Z,1.05
2023-05-11T11:13:12.023Z,0.85
2023-05-11T11:16:02.785Z,1.00
2023-05-11T11:18:31.320Z,1.00
2023-05-11T11:20:58.973Z,1.10
2023-05-11T11:23:41.402Z,1.00
2023-05-11T11:26:10.184Z,1.08
2023-05-11T11:28:57.109Z,0.88
2023-05-11T11:31:26.158Z,0.85
2023-05-11T11:33:53.535Z,0.98
2023-05-11T11:36:54.900Z,0.70
2023-05-11T11:39:22.331Z,0.80
2023-05-11T11:42:04.611Z,1.13
2023-05-11T11:44:31.379Z,0.90
2023-05-11T11:47:16.959Z,1.20
2023-05-11T11:49:45.625Z,1.00
2023-05-11T11:52:35.926Z,0.73
2023-05-11T11:55:04.053Z,1.02
2023-05-11T11:57:32.445Z,1.00
2023-05-11T12:00:13.048Z,0.90
2023-05-11T12:02:44.790Z,1.00
2023-05-11T12:05:22.949Z,1.00
2023-05-11T12:07:51.487Z,1.00
2023-05-11T12:10:20.309Z,0.75
2023-05-11T12:12:48.635Z,1.13
2023-05-11T12:15:25.517Z,1.17
2023-05-11T12:17:52.134Z,0.85
2023-05-11T12:20:20.041Z,0.90
2023-05-11T12:22:48.941Z,0.90
2023-05-11T12:25:19.476Z,0.65
2023-05-11T12:27:55.280Z,0.60
2023-05-11T12:30:27.145Z,0.65
2023-05-11T12:35:28.868Z,0.90
2023-05-11T12:37:57.345Z,0.75
2023-05-11T12:40:25.119Z,0.75
2023-05-11T12:42:56.686Z,0.65
2023-05-11T12:45:24.676Z,0.75
2023-05-11T12:47:56.222Z,0.80
2023-05-11T12:50:23.095Z,0.93
2023-05-11T12:52:50.331Z,1.00
2023-05-11T12:55:30.519Z,0.50
2023-05-11T12:58:12.941Z,0.90
2023-05-11T13:00:56.437Z,0.75
2023-05-11T13:03:26.068Z,0.80
2023-05-11T13:06:11.855Z,0.90
2023-05-11T13:08:44.377Z,0.68
2023-05-11T13:11:25.665Z,0.80
2023-05-11T13:13:57.000Z,0.80
2023-05-11T13:16:26.926Z,0.80
2023-05-11T13:18:59.962Z,0.70
2023-05-11T13:21:26.694Z,0.90
2023-05-11T13:23:54.409Z,0.77
2023-05-11T13:26:25.510Z,0.60
2023-05-11T13:29:08.729Z,0.80
2023-05-11T13:31:51.965Z,0.90
2023-05-11T13:34:19.854Z,0.80
2023-05-11T13:36:47.077Z,1.00
2023-05-11T13:39:13.609Z,0.90
2023-05-11T13:41:40.117Z,0.70
2023-05-11T13:44:08.824Z,0.90
2023-05-11T13:46:35.760Z,0.88
2023-05-11T13:49:03.708Z,0.73
2023-05-11T13:51:30.950Z,1.00
2023-05-11T13:53:59.212Z,1.02
2023-05-11T13:56:26.019Z,0.90
2023-05-11T13:58:52.521Z,0.93
2023-05-11T14:01:19.016Z,0.98
2023-05-11T14:03:45.548Z,1.02
2023-05-11T14:06:12.520Z,1.50
2023-05-11T14:08:38.903Z,1.40
2023-05-11T14:11:05.502Z,1.20
2023-05-11T14:13:31.954Z,1.50
2023-05-11T14:15:58.480Z,1.70
2023-05-11T14:18:25.966Z,2.10
2023-05-11T14:20:53.815Z,1.60
2023-05-11T14:23:20.232Z,1.40
2023-05-11T14:25:46.680Z,1.83
2023-05-11T14:28:13.181Z,1.70
2023-05-11T14:30:39.635Z,1.42
2023-05-11T14:33:06.204Z,1.50
2023-05-11T14:35:32.812Z,1.73
2023-05-11T14:37:59.273Z,2.07
2023-05-11T14:40:25.751Z,1.67
2023-05-11T14:42:52.306Z,2.00
2023-05-11T14:45:18.892Z,2.00
2023-05-11T14:47:45.608Z,2.00
2023-05-11T14:50:12.129Z,3.00
2023-05-11T14:52:38.564Z,2.00
2023-05-11T14:55:05.674Z,2.10
2023-05-11T14:57:32.856Z,2.07
2023-05-11T15:00:00.658Z,2.40
2023-05-11T15:02:28.350Z,2.10
2023-05-11T15:04:55.417Z,2.20
2023-05-11T15:07:21.845Z,2.37
2023-05-11T15:09:48.359Z,2.60
2023-05-11T15:12:14.852Z,2.17
2023-05-11T15:14:41.245Z,2.03
2023-05-11T15:17:07.725Z,2.10
2023-05-11T15:19:34.170Z,2.00
2023-05-11T15:22:00.702Z,2.00
2023-05-11T15:24:27.135Z,2.00
2023-05-11T15:26:53.554Z,2.40
2023-05-11T15:29:20.710Z,2.27
2023-05-11T15:31:47.343Z,2.20
2023-05-11T15:34:15.200Z,1.63
2023-05-11T15:36:41.734Z,2.08
2023-05-11T15:39:09.185Z,2.03
2023-05-11T15:41:35.749Z,2.05
2023-05-11T15:44:02.411Z,2.10
2023-05-11T15:46:30.277Z,1.90
2023-05-11T15:48:59.079Z,1.67
2023-05-11T15:51:26.564Z,2.05
2023-05-11T15:53:54.368Z,2.10
2023-05-11T15:56:22.469Z,2.10
2023-05-11T15:58:48.887Z,1.70
2023-05-11T16:01:15.367Z,1.70
2023-05-11T16:03:41.895Z,1.75
2023-05-11T16:06:08.448Z,1.70
2023-05-11T16:08:34.846Z,1.63
2023-05-11T16:11:01.286Z,1.58
2023-05-11T16:13:27.675Z,1.58
2023-05-11T16:15:54.233Z,1.63
2023-05-11T16:18:20.808Z,1.90
2023-05-11T16:20:47.296Z,1.77
2023-05-11T16:23:13.820Z,1.70
2023-05-11T16:25:40.277Z,1.90
2023-05-11T16:28:06.818Z,1.80
2023-05-11T16:30:33.318Z,1.83
2023-05-11T16:32:59.818Z,2.03
2023-05-11T16:35:26.837Z,1.95
2023-05-11T16:37:53.994Z,2.00
2023-05-11T16:40:21.571Z,1.83
2023-05-11T16:42:48.857Z,1.70
2023-05-11T16:45:16.441Z,1.98
2023-05-11T16:47:45.340Z,2.00
2023-05-11T16:50:15.974Z,2.10
2023-05-11T16:52:42.680Z,1.85
2023-05-11T16:55:09.789Z,2.28
2023-05-11T16:57:36.356Z,2.00
2023-05-11T17:00:03.083Z,2.40
2023-05-11T17:02:29.727Z,2.20
2023-05-11T17:04:56.277Z,1.88
2023-05-11T17:07:22.838Z,2.47
2023-05-11T17:09:52.060Z,2.83
2023-05-11T17:12:18.553Z,2.40
2023-05-11T17:14:44.974Z,2.35
2023-05-11T17:17:11.518Z,2.80
2023-05-11T17:19:38.347Z,2.42
2023-05-11T17:22:07.292Z,2.60
2023-05-11T17:24:33.833Z,2.90
2023-05-11T17:27:00.627Z,2.33
2023-05-11T17:29:27.101Z,2.80
2023-05-11T17:31:53.652Z,2.40
2023-05-11T17:34:22.095Z,3.25
2023-05-11T17:36:50.283Z,3.05
2023-05-11T17:39:17.056Z,2.67
2023-05-11T17:41:43.550Z,2.47
2023-05-11T17:44:10.060Z,3.88
2023-05-11T17:46:36.639Z,3.63
2023-05-11T17:49:03.945Z,3.72
2023-05-11T17:51:31.235Z,3.40
2023-05-11T17:53:57.705Z,3.15
2023-05-11T17:56:24.199Z,2.15
2023-05-11T17:58:51.475Z,1.88
2023-05-11T18:01:18.187Z,2.30
2023-05-11T18:03:45.291Z,2.33
2023-05-11T18:06:11.810Z,2.80
2023-05-11T18:08:38.335Z,2.53
2023-05-11T18:11:05.200Z,2.60
2023-05-11T18:13:31.698Z,2.80
2023-05-11T18:15:59.343Z,2.60
2023-05-11T18:18:26.002Z,2.35
2023-05-11T18:20:52.554Z,2.88
2023-05-11T18:23:18.968Z,3.90
2023-05-11T18:25:45.403Z,3.30
2023-05-11T18:28:11.807Z,3.65
2023-05-11T18:30:38.649Z,4.93
2023-05-11T18:33:05.297Z,3.38
2023-05-11T18:35:31.763Z,3.00
2023-05-11T18:37:59.550Z,3.50
2023-05-11T18:40:26.165Z,54.97
2023-05-11T18:42:53.842Z,39.80
2023-05-11T18:45:20.350Z,7.00
2023-05-11T18:47:47.136Z,4.28
2023-05-11T18:50:13.762Z,3.40
2023-05-11T18:52:40.399Z,3.47
2023-05-11T18:55:07.358Z,3.05
2023-05-11T18:57:34.396Z,3.50
2023-05-11T19:00:01.244Z,3.75
2023-05-11T19:02:27.988Z,3.40
2023-05-11T19:04:54.599Z,3.50
2023-05-11T19:07:21.036Z,3.30
2023-05-11T19:09:47.462Z,3.45
2023-05-11T19:12:13.973Z,3.75
2023-05-11T19:14:40.474Z,3.60
2023-05-11T19:17:07.006Z,4.05
2023-05-11T19:19:34.181Z,3.85
2023-05-11T19:22:00.772Z,3.88
2023-05-11T19:24:28.090Z,4.00
2023-05-11T19:27:05.944Z,3.50
2023-05-11T19:29:34.849Z,3.53
2023-05-11T19:32:01.512Z,3.67
2023-05-11T19:34:28.046Z,3.80
2023-05-11T19:36:54.502Z,3.67
2023-05-11T19:39:20.885Z,4.25
2023-05-11T19:41:47.635Z,3.72
2023-05-11T19:44:14.142Z,3.90
2023-05-11T19:46:46.186Z,4.20
2023-05-11T19:49:13.840Z,4.10
2023-05-11T19:51:40.647Z,3.78
2023-05-11T19:54:07.223Z,4.40
2023-05-11T19:56:33.910Z,4.65
2023-05-11T19:59:00.632Z,4.18
2023-05-11T20:01:27.186Z,4.32
2023-05-11T20:03:53.964Z,4.03
2023-05-11T20:06:20.541Z,4.18
2023-05-11T20:08:48.808Z,4.50
2023-05-11T20:11:15.576Z,4.80
2023-05-11T20:13:43.863Z,4.18
2023-05-11T20:16:10.678Z,4.22
2023-05-11T20:18:37.276Z,3.97
2023-05-11T20:21:04.262Z,4.15
2023-05-11T20:23:30.695Z,4.10
2023-05-11T20:25:57.156Z,4.07
2023-05-11T20:28:27.047Z,4.47
2023-05-11T20:30:55.819Z,4.05
2023-05-11T20:35:53.319Z,3.83
2023-05-11T20:38:20.366Z,3.90
2023-05-11T20:40:46.841Z,4.30
2023-05-11T20:43:14.748Z,4.00
2023-05-11T20:45:41.914Z,4.13
2023-05-11T20:48:08.613Z,3.70
2023-05-11T20:50:35.175Z,4.53
2023-05-11T20:53:01.641Z,4.30
2023-05-11T20:55:28.207Z,3.80
2023-05-11T20:57:54.700Z,4.07
2023-05-11T21:00:21.478Z,4.35
2023-05-11T21:02:48.267Z,3.90
2023-05-11T21:05:14.957Z,4.13
2023-05-11T21:07:41.363Z,4.13
2023-05-11T21:10:10.475Z,3.60
2023-05-11T21:12:36.979Z,4.13
2023-05-11T21:15:03.727Z,4.27
2023-05-11T21:17:30.296Z,3.58
2023-05-11T21:19:56.798Z,3.90
2023-05-11T21:22:23.260Z,3.95
2023-05-11T21:24:49.765Z,3.85
2023-05-11T21:27:16.237Z,3.70
2023-05-11T21:29:42.700Z,3.47
2023-05-11T21:32:09.123Z,3.97
2023-05-11T21:34:35.791Z,4.05
2023-05-11T21:37:03.152Z,4.18
2023-05-11T21:39:29.552Z,3.20
2023-05-11T21:41:56.691Z,2.85
2023-05-11T21:44:23.215Z,2.60
2023-05-11T21:46:50.408Z,2.83
2023-05-11T21:49:17.118Z,2.75
2023-05-11T21:51:43.628Z,2.63
2023-05-11T21:54:10.202Z,2.53
2023-05-11T21:56:36.892Z,2.53
2023-05-11T21:59:03.613Z,2.08
2023-05-11T22:01:30.185Z,2.38
2023-05-11T22:03:57.071Z,2.70
2023-05-11T22:06:23.667Z,2.30
2023-05-11T22:08:50.542Z,2.23
2023-05-11T22:11:17.240Z,2.58
2023-05-11T22:13:44.541Z,2.40
2023-05-11T22:16:11.014Z,2.47
2023-05-11T22:18:37.595Z,2.07
2023-05-11T22:21:04.413Z,2.22
2023-05-11T22:23:31.765Z,2.33
2023-05-11T22:25:58.407Z,2.47
2023-05-11T22:28:24.847Z,2.53
2023-05-11T22:30:51.221Z,2.60
2023-05-11T22:33:17.710Z,2.45
2023-05-11T22:35:44.297Z,2.60
2023-05-11T22:38:10.728Z,2.07
2023-05-11T22:40:37.324Z,2.67
2023-05-11T22:43:03.740Z,2.53
2023-05-11T22:45:30.210Z,2.63
2023-05-11T22:47:56.903Z,2.23
2023-05-11T22:50:23.383Z,2.50
2023-05-11T22:52:49.900Z,2.13
2023-05-11T22:55:16.401Z,2.50
2023-05-11T22:57:43.833Z,2.60
2023-05-11T23:00:10.829Z,2.30
2023-05-11T23:02:37.986Z,4.60
2023-05-11T23:05:04.995Z,2.60
2023-05-11T23:07:31.566Z,2.50
2023-05-11T23:09:58.040Z,2.20
2023-05-11T23:12:24.690Z,2.17
2023-05-11T23:14:51.142Z,1.90
2023-05-11T23:17:17.848Z,3.20
2023-05-11T23:19:44.375Z,2.10
2023-05-11T23:22:10.966Z,2.23
2023-05-11T23:24:37.453Z,2.30
2023-05-11T23:27:04.202Z,2.20
2023-05-11T23:29:30.633Z,2.20
2023-05-11T23:31:57.122Z,2.60
2023-05-11T23:34:23.593Z,2.40
2023-05-11T23:36:50.157Z,2.20
2023-05-11T23:39:16.587Z,2.30
2023-05-11T23:41:43.013Z,2.70
2023-05-11T23:44:09.821Z,3.00
2023-05-11T23:46:36.368Z,2.27
2023-05-11T23:49:03.205Z,2.43
2023-05-11T23:51:29.744Z,2.27
2023-05-11T23:53:56.152Z,2.50
2023-05-11T23:56:22.658Z,2.60
2023-05-11T23:58:50.418Z,2.90
